sensor_id;sensor_type;location;lat;lon;timestamp;P1;durP1;ratioP1;P2;durP2;ratioP2
65665;SDS011;52365;47.464;18.976;2023-11-21T00:00:03;13.02;;;7.03;;
65665;SDS011;52365;47.464;18.976;2023-11-21T00:00:30;12.48;;;7.25;;
65665;SDS011;52365;47.464;18.976;2023-11-21T00:00:51;12.27;;;6.90;;
65665;SDS011;52365;47.464;18.976;2023-11-21T00:01:12;12.02;;;6.78;;
65665;SDS011;52365;47.464;18.976;2023-11-21T00:01:33;12.73;;;6.90;;
65665;SDS011;52365;47.464;18.976;2023-11-21T00:01:54;11.75;;;7.18;;
65665;SDS011;52365;47.464;18.976;2023-11-21T00:02:15;11.65;;;6.85;;
65665;SDS011;52365;47.464;18.976;2023-11-21T00:02:36;12.00;;;7.00;;
65665;SDS011;52365;47.464;18.976;2023-11-21T00:03:00;12.07;;;6.57;;
65665;SDS011;52365;47.464;18.976;2023-11-21T00:03:21;10.93;;;6.15;;
65665;SDS011;52365;47.464;18.976;2023-11-21T00:03:44;10.48;;;6.30;;
65665;SDS011;52365;47.464;18.976;2023-11-21T00:04:05;11.48;;;6.37;;
65665;SDS011;52365;47.464;18.976;2023-11-21T00:04:27;12.95;;;6.40;;
65665;SDS011;52365;47.464;18.976;2023-11-21T00:04:48;11.38;;;6.37;;
65665;SDS011;52365;47.464;18.976;2023-11-21T00:05:10;10.20;;;6.32;;
65665;SDS011;52365;47.464;18.976;2023-11-21T00:05:34;10.88;;;6.10;;
65665;SDS011;52365;47.464;18.976;2023-11-21T00:05:56;11.02;;;5.80;;
65665;SDS011;52365;47.464;18.976;2023-11-21T00:06:17;11.35;;;6.18;;
65665;SDS011;52365;47.464;18.976;2023-11-21T00:06:38;11.23;;;6.20;;
65665;SDS011;52365;47.464;18.976;2023-11-21T00:06:59;10.40;;;5.90;;
65665;SDS011;52365;47.464;18.976;2023-11-21T00:07:20;10.30;;;5.70;;
65665;SDS011;52365;47.464;18.976;2023-11-21T00:07:42;12.05;;;5.72;;
65665;SDS011;52365;47.464;18.976;2023-11-21T00:08:04;10.20;;;5.78;;
65665;SDS011;52365;47.464;18.976;2023-11-21T00:08:25;8.65;;;5.30;;
65665;SDS011;52365;47.464;18.976;2023-11-21T00:08:48;10.88;;;5.30;;
65665;SDS011;52365;47.464;18.976;2023-11-21T00:09:09;10.18;;;5.47;;
65665;SDS011;52365;47.464;18.976;2023-11-21T00:09:30;9.63;;;5.68;;
65665;SDS011;52365;47.464;18.976;2023-11-21T00:09:52;8.90;;;5.53;;
65665;SDS011;52365;47.464;18.976;2023-11-21T00:10:13;8.48;;;5.57;;
65665;SDS011;52365;47.464;18.976;2023-11-21T00:10:34;10.02;;;5.72;;
65665;SDS011;52365;47.464;18.976;2023-11-21T00:10:55;10.07;;;5.60;;
65665;SDS011;52365;47.464;18.976;2023-11-21T00:11:16;9.13;;;5.70;;
65665;SDS011;52365;47.464;18.976;2023-11-21T00:11:37;10.35;;;5.78;;
65665;SDS011;52365;47.464;18.976;2023-11-21T00:11:59;9.65;;;5.90;;
65665;SDS011;52365;47.464;18.976;2023-11-21T00:12:20;11.10;;;6.15;;
65665;SDS011;52365;47.464;18.976;2023-11-21T00:12:41;11.65;;;6.68;;
65665;SDS011;52365;47.464;18.976;2023-11-21T00:13:02;11.05;;;6.35;;
65665;SDS011;52365;47.464;18.976;2023-11-21T00:13:23;10.52;;;6.50;;
65665;SDS011;52365;47.464;18.976;2023-11-21T00:13:44;10.93;;;6.43;;
65665;SDS011;52365;47.464;18.976;2023-11-21T00:14:06;11.05;;;6.20;;
65665;SDS011;52365;47.464;18.976;2023-11-21T00:14:28;11.88;;;6.30;;
65665;SDS011;52365;47.464;18.976;2023-11-21T00:14:49;10.93;;;6.10;;
65665;SDS011;52365;47.464;18.976;2023-11-21T00:15:11;10.88;;;6.37;;
65665;SDS011;52365;47.464;18.976;2023-11-21T00:15:27;12.10;;;6.45;;
65665;SDS011;52365;47.464;18.976;2023-11-21T00:15:48;12.43;;;6.57;;
65665;SDS011;52365;47.464;18.976;2023-11-21T00:16:08;12.95;;;6.53;;
65665;SDS011;52365;47.464;18.976;2023-11-21T00:16:29;12.15;;;6.28;;
65665;SDS011;52365;47.464;18.976;2023-11-21T00:16:50;11.00;;;6.60;;
65665;SDS011;52365;47.464;18.976;2023-11-21T00:17:11;9.60;;;6.28;;
65665;SDS011;52365;47.464;18.976;2023-11-21T00:17:32;11.73;;;6.32;;
65665;SDS011;52365;47.464;18.976;2023-11-21T00:17:54;11.52;;;6.32;;
65665;SDS011;52365;47.464;18.976;2023-11-21T00:18:15;13.75;;;6.15;;
65665;SDS011;52365;47.464;18.976;2023-11-21T00:18:35;10.90;;;5.90;;
65665;SDS011;52365;47.464;18.976;2023-11-21T00:18:56;9.60;;;6.10;;
65665;SDS011;52365;47.464;18.976;2023-11-21T00:19:17;10.32;;;5.80;;
65665;SDS011;52365;47.464;18.976;2023-11-21T00:19:38;10.70;;;6.03;;
65665;SDS011;52365;47.464;18.976;2023-11-21T00:19:59;9.23;;;5.40;;
65665;SDS011;52365;47.464;18.976;2023-11-21T00:20:20;8.65;;;5.12;;
65665;SDS011;52365;47.464;18.976;2023-11-21T00:20:42;9.55;;;5.43;;
65665;SDS011;52365;47.464;18.976;2023-11-21T00:21:03;9.13;;;5.62;;
65665;SDS011;52365;47.464;18.976;2023-11-21T00:21:24;10.77;;;5.93;;
65665;SDS011;52365;47.464;18.976;2023-11-21T00:21:45;11.15;;;5.78;;
65665;SDS011;52365;47.464;18.976;2023-11-21T00:22:06;56.10;;;34.58;;
65665;SDS011;52365;47.464;18.976;2023-11-21T00:22:27;97.25;;;63.33;;
65665;SDS011;52365;47.464;18.976;2023-11-21T00:22:48;56.58;;;37.70;;
65665;SDS011;52365;47.464;18.976;2023-11-21T00:23:09;66.45;;;45.58;;
65665;SDS011;52365;47.464;18.976;2023-11-21T00:23:30;59.58;;;38.65;;
65665;SDS011;52365;47.464;18.976;2023-11-21T00:23:47;60.63;;;35.97;;
65665;SDS011;52365;47.464;18.976;2023-11-21T00:24:08;54.30;;;30.92;;
65665;SDS011;52365;47.464;18.976;2023-11-21T00:24:29;59.85;;;35.80;;
65665;SDS011;52365;47.464;18.976;2023-11-21T00:24:50;56.60;;;35.35;;
65665;SDS011;52365;47.464;18.976;2023-11-21T00:25:11;16.00;;;9.20;;
65665;SDS011;52365;47.464;18.976;2023-11-21T00:25:34;11.98;;;7.15;;
65665;SDS011;52365;47.464;18.976;2023-11-21T00:25:55;13.30;;;6.85;;
65665;SDS011;52365;47.464;18.976;2023-11-21T00:26:17;11.57;;;6.43;;
65665;SDS011;52365;47.464;18.976;2023-11-21T00:26:38;10.13;;;5.80;;
65665;SDS011;52365;47.464;18.976;2023-11-21T00:27:00;10.38;;;5.28;;
65665;SDS011;52365;47.464;18.976;2023-11-21T00:27:21;10.30;;;5.40;;
65665;SDS011;52365;47.464;18.976;2023-11-21T00:27:42;9.20;;;5.35;;
65665;SDS011;52365;47.464;18.976;2023-11-21T00:28:03;8.35;;;5.03;;
65665;SDS011;52365;47.464;18.976;2023-11-21T00:28:24;10.20;;;4.78;;
65665;SDS011;52365;47.464;18.976;2023-11-21T00:28:46;10.18;;;4.90;;
65665;SDS011;52365;47.464;18.976;2023-11-21T00:29:07;8.98;;;4.90;;
65665;SDS011;52365;47.464;18.976;2023-11-21T00:29:28;9.80;;;5.05;;
65665;SDS011;52365;47.464;18.976;2023-11-21T00:29:49;10.10;;;5.18;;
65665;SDS011;52365;47.464;18.976;2023-11-21T00:30:11;10.90;;;5.57;;
65665;SDS011;52365;47.464;18.976;2023-11-21T00:30:32;14.32;;;6.53;;
65665;SDS011;52365;47.464;18.976;2023-11-21T00:30:53;9.93;;;5.70;;
65665;SDS011;52365;47.464;18.976;2023-11-21T00:31:14;10.90;;;5.87;;
65665;SDS011;52365;47.464;18.976;2023-11-21T00:31:35;11.20;;;5.93;;
65665;SDS011;52365;47.464;18.976;2023-11-21T00:31:57;11.48;;;5.95;;
65665;SDS011;52365;47.464;18.976;2023-11-21T00:32:18;11.48;;;6.25;;
65665;SDS011;52365;47.464;18.976;2023-11-21T00:32:39;11.23;;;6.47;;
65665;SDS011;52365;47.464;18.976;2023-11-21T00:33:00;12.48;;;6.80;;
65665;SDS011;52365;47.464;18.976;2023-11-21T00:33:21;13.05;;;7.12;;
65665;SDS011;52365;47.464;18.976;2023-11-21T00:33:42;13.85;;;6.65;;
65665;SDS011;52365;47.464;18.976;2023-11-21T00:34:03;11.98;;;6.70;;
65665;SDS011;52365;47.464;18.976;2023-11-21T00:34:25;12.60;;;6.37;;
65665;SDS011;52365;47.464;18.976;2023-11-21T00:34:46;12.25;;;6.25;;
65665;SDS011;52365;47.464;18.976;2023-11-21T00:35:07;11.43;;;6.07;;
65665;SDS011;52365;47.464;18.976;2023-11-21T00:35:29;12.30;;;6.40;;
65665;SDS011;52365;47.464;18.976;2023-11-21T00:35:50;13.23;;;6.70;;
65665;SDS011;52365;47.464;18.976;2023-11-21T00:36:11;12.93;;;6.87;;
65665;SDS011;52365;47.464;18.976;2023-11-21T00:36:32;13.93;;;7.07;;
65665;SDS011;52365;47.464;18.976;2023-11-21T00:36:53;12.93;;;6.97;;
65665;SDS011;52365;47.464;18.976;2023-11-21T00:37:14;11.55;;;6.87;;
65665;SDS011;52365;47.464;18.976;2023-11-21T00:37:35;16.30;;;7.30;;
65665;SDS011;52365;47.464;18.976;2023-11-21T00:37:56;12.93;;;7.12;;
65665;SDS011;52365;47.464;18.976;2023-11-21T00:38:18;13.88;;;7.53;;
65665;SDS011;52365;47.464;18.976;2023-11-21T00:38:40;10.35;;;6.78;;
65665;SDS011;52365;47.464;18.976;2023-11-21T00:39:01;11.98;;;7.32;;
65665;SDS011;52365;47.464;18.976;2023-11-21T00:39:22;13.57;;;7.35;;
65665;SDS011;52365;47.464;18.976;2023-11-21T00:39:44;13.20;;;7.30;;
65665;SDS011;52365;47.464;18.976;2023-11-21T00:40:05;13.65;;;7.40;;
65665;SDS011;52365;47.464;18.976;2023-11-21T00:40:27;14.07;;;7.70;;
65665;SDS011;52365;47.464;18.976;2023-11-21T00:40:48;13.50;;;7.43;;
65665;SDS011;52365;47.464;18.976;2023-11-21T00:41:09;12.45;;;7.65;;
65665;SDS011;52365;47.464;18.976;2023-11-21T00:41:30;14.57;;;7.47;;
65665;SDS011;52365;47.464;18.976;2023-11-21T00:41:50;14.20;;;7.35;;
65665;SDS011;52365;47.464;18.976;2023-11-21T00:42:11;13.02;;;7.35;;
65665;SDS011;52365;47.464;18.976;2023-11-21T00:42:33;12.37;;;7.22;;
65665;SDS011;52365;47.464;18.976;2023-11-21T00:42:57;14.38;;;7.78;;
65665;SDS011;52365;47.464;18.976;2023-11-21T00:43:18;12.57;;;7.37;;
65665;SDS011;52365;47.464;18.976;2023-11-21T00:43:39;12.45;;;7.15;;
65665;SDS011;52365;47.464;18.976;2023-11-21T00:44:00;12.70;;;7.65;;
65665;SDS011;52365;47.464;18.976;2023-11-21T00:44:21;14.20;;;7.53;;
65665;SDS011;52365;47.464;18.976;2023-11-21T00:44:42;14.05;;;7.35;;
65665;SDS011;52365;47.464;18.976;2023-11-21T00:45:03;12.15;;;7.20;;
65665;SDS011;52365;47.464;18.976;2023-11-21T00:45:24;13.73;;;7.15;;
65665;SDS011;52365;47.464;18.976;2023-11-21T00:45:46;13.93;;;7.30;;
65665;SDS011;52365;47.464;18.976;2023-11-21T00:46:09;12.57;;;7.22;;
65665;SDS011;52365;47.464;18.976;2023-11-21T00:46:30;15.07;;;7.32;;
65665;SDS011;52365;47.464;18.976;2023-11-21T00:46:52;14.93;;;7.85;;
65665;SDS011;52365;47.464;18.976;2023-11-21T00:47:13;14.07;;;7.72;;
65665;SDS011;52365;47.464;18.976;2023-11-21T00:47:33;14.65;;;7.28;;
65665;SDS011;52365;47.464;18.976;2023-11-21T00:47:54;13.35;;;7.43;;
65665;SDS011;52365;47.464;18.976;2023-11-21T00:48:15;16.65;;;7.80;;
65665;SDS011;52365;47.464;18.976;2023-11-21T00:48:36;12.82;;;7.28;;
65665;SDS011;52365;47.464;18.976;2023-11-21T00:48:57;12.93;;;7.12;;
65665;SDS011;52365;47.464;18.976;2023-11-21T00:49:19;14.07;;;7.50;;
65665;SDS011;52365;47.464;18.976;2023-11-21T00:49:41;14.63;;;7.68;;
65665;SDS011;52365;47.464;18.976;2023-11-21T00:50:02;13.90;;;7.20;;
65665;SDS011;52365;47.464;18.976;2023-11-21T00:50:23;14.57;;;7.03;;
65665;SDS011;52365;47.464;18.976;2023-11-21T00:50:44;13.00;;;7.22;;
65665;SDS011;52365;47.464;18.976;2023-11-21T00:51:05;12.65;;;7.22;;
65665;SDS011;52365;47.464;18.976;2023-11-21T00:51:27;12.93;;;7.05;;
65665;SDS011;52365;47.464;18.976;2023-11-21T00:51:48;13.68;;;7.28;;
65665;SDS011;52365;47.464;18.976;2023-11-21T00:52:09;13.40;;;7.30;;
65665;SDS011;52365;47.464;18.976;2023-11-21T00:52:29;13.15;;;7.10;;
65665;SDS011;52365;47.464;18.976;2023-11-21T00:52:51;11.95;;;6.87;;
65665;SDS011;52365;47.464;18.976;2023-11-21T00:53:12;13.18;;;6.90;;
65665;SDS011;52365;47.464;18.976;2023-11-21T00:53:33;13.18;;;7.30;;
65665;SDS011;52365;47.464;18.976;2023-11-21T00:53:54;13.02;;;7.22;;
65665;SDS011;52365;47.464;18.976;2023-11-21T00:54:15;13.05;;;7.20;;
65665;SDS011;52365;47.464;18.976;2023-11-21T00:54:37;12.23;;;7.22;;
65665;SDS011;52365;47.464;18.976;2023-11-21T00:54:58;13.00;;;6.70;;
65665;SDS011;52365;47.464;18.976;2023-11-21T00:55:20;12.48;;;6.72;;
65665;SDS011;52365;47.464;18.976;2023-11-21T00:55:41;13.95;;;6.78;;
65665;SDS011;52365;47.464;18.976;2023-11-21T00:56:02;12.55;;;6.75;;
65665;SDS011;52365;47.464;18.976;2023-11-21T00:56:23;10.90;;;6.35;;
65665;SDS011;52365;47.464;18.976;2023-11-21T00:56:44;11.10;;;6.85;;
65665;SDS011;52365;47.464;18.976;2023-11-21T00:57:08;12.55;;;7.10;;
65665;SDS011;52365;47.464;18.976;2023-11-21T00:57:29;14.73;;;7.32;;
65665;SDS011;52365;47.464;18.976;2023-11-21T00:57:50;15.23;;;7.70;;
65665;SDS011;52365;47.464;18.976;2023-11-21T00:58:11;12.82;;;7.12;;
65665;SDS011;52365;47.464;18.976;2023-11-21T00:58:32;11.70;;;6.68;;
65665;SDS011;52365;47.464;18.976;2023-11-21T00:58:53;11.38;;;7.00;;
65665;SDS011;52365;47.464;18.976;2023-11-21T00:59:14;11.35;;;6.80;;
65665;SDS011;52365;47.464;18.976;2023-11-21T00:59:35;12.85;;;6.95;;
65665;SDS011;52365;47.464;18.976;2023-11-21T00:59:56;14.07;;;7.07;;
65665;SDS011;52365;47.464;18.976;2023-11-21T01:00:17;13.38;;;6.93;;
65665;SDS011;52365;47.464;18.976;2023-11-21T01:00:38;12.40;;;6.90;;
65665;SDS011;52365;47.464;18.976;2023-11-21T01:01:02;12.00;;;6.82;;
65665;SDS011;52365;47.464;18.976;2023-11-21T01:01:24;11.23;;;6.68;;
65665;SDS011;52365;47.464;18.976;2023-11-21T01:01:45;11.27;;;6.45;;
65665;SDS011;52365;47.464;18.976;2023-11-21T01:02:06;11.20;;;6.60;;
65665;SDS011;52365;47.464;18.976;2023-11-21T01:02:30;13.80;;;7.03;;
65665;SDS011;52365;47.464;18.976;2023-11-21T01:02:51;16.67;;;9.63;;
65665;SDS011;52365;47.464;18.976;2023-11-21T01:03:12;21.02;;;13.82;;
65665;SDS011;52365;47.464;18.976;2023-11-21T01:03:33;18.02;;;11.32;;
65665;SDS011;52365;47.464;18.976;2023-11-21T01:03:54;17.80;;;10.60;;
65665;SDS011;52365;47.464;18.976;2023-11-21T01:04:15;14.55;;;8.48;;
65665;SDS011;52365;47.464;18.976;2023-11-21T01:04:36;86.60;;;55.05;;
65665;SDS011;52365;47.464;18.976;2023-11-21T01:04:53;172.62;;;108.78;;
65665;SDS011;52365;47.464;18.976;2023-11-21T01:05:14;102.62;;;63.42;;
65665;SDS011;52365;47.464;18.976;2023-11-21T01:05:35;76.75;;;47.42;;
65665;SDS011;52365;47.464;18.976;2023-11-21T01:05:56;42.95;;;27.27;;
65665;SDS011;52365;47.464;18.976;2023-11-21T01:06:17;22.35;;;13.20;;
65665;SDS011;52365;47.464;18.976;2023-11-21T01:06:38;21.40;;;12.85;;
65665;SDS011;52365;47.464;18.976;2023-11-21T01:06:59;30.62;;;18.12;;
65665;SDS011;52365;47.464;18.976;2023-11-21T01:07:20;19.02;;;11.12;;
65665;SDS011;52365;47.464;18.976;2023-11-21T01:07:41;11.68;;;7.45;;
65665;SDS011;52365;47.464;18.976;2023-11-21T01:08:02;14.52;;;9.07;;
65665;SDS011;52365;47.464;18.976;2023-11-21T01:08:23;16.42;;;11.23;;
65665;SDS011;52365;47.464;18.976;2023-11-21T01:08:45;14.55;;;8.80;;
65665;SDS011;52365;47.464;18.976;2023-11-21T01:09:06;13.25;;;7.45;;
65665;SDS011;52365;47.464;18.976;2023-11-21T01:09:28;11.27;;;6.93;;
65665;SDS011;52365;47.464;18.976;2023-11-21T01:09:50;12.30;;;6.85;;
65665;SDS011;52365;47.464;18.976;2023-11-21T01:10:11;9.75;;;6.10;;
65665;SDS011;52365;47.464;18.976;2023-11-21T01:10:33;9.38;;;5.80;;
65665;SDS011;52365;47.464;18.976;2023-11-21T01:10:54;10.02;;;6.15;;
65665;SDS011;52365;47.464;18.976;2023-11-21T01:11:15;10.57;;;5.70;;
65665;SDS011;52365;47.464;18.976;2023-11-21T01:11:37;10.82;;;5.45;;
65665;SDS011;52365;47.464;18.976;2023-11-21T01:11:58;9.73;;;5.22;;
65665;SDS011;52365;47.464;18.976;2023-11-21T01:12:20;10.32;;;5.70;;
65665;SDS011;52365;47.464;18.976;2023-11-21T01:12:41;9.65;;;5.65;;
65665;SDS011;52365;47.464;18.976;2023-11-21T01:13:02;11.15;;;5.50;;
65665;SDS011;52365;47.464;18.976;2023-11-21T01:13:20;10.27;;;5.50;;
65665;SDS011;52365;47.464;18.976;2023-11-21T01:13:41;10.13;;;5.97;;
65665;SDS011;52365;47.464;18.976;2023-11-21T01:14:06;10.30;;;6.00;;
65665;SDS011;52365;47.464;18.976;2023-11-21T01:14:29;11.30;;;5.85;;
65665;SDS011;52365;47.464;18.976;2023-11-21T01:14:50;10.52;;;5.82;;
65665;SDS011;52365;47.464;18.976;2023-11-21T01:15:11;9.88;;;6.00;;
65665;SDS011;52365;47.464;18.976;2023-11-21T01:15:35;9.00;;;5.65;;
65665;SDS011;52365;47.464;18.976;2023-11-21T01:15:56;11.02;;;5.53;;
65665;SDS011;52365;47.464;18.976;2023-11-21T01:16:17;10.30;;;5.37;;
65665;SDS011;52365;47.464;18.976;2023-11-21T01:16:38;12.40;;;6.47;;
65665;SDS011;52365;47.464;18.976;2023-11-21T01:16:59;11.45;;;5.85;;
65665;SDS011;52365;47.464;18.976;2023-11-21T01:17:20;8.60;;;5.15;;
65665;SDS011;52365;47.464;18.976;2023-11-21T01:17:43;8.90;;;5.22;;
65665;SDS011;52365;47.464;18.976;2023-11-21T01:18:04;8.93;;;5.45;;
65665;SDS011;52365;47.464;18.976;2023-11-21T01:18:25;8.35;;;5.47;;
65665;SDS011;52365;47.464;18.976;2023-11-21T01:18:46;9.20;;;5.15;;
65665;SDS011;52365;47.464;18.976;2023-11-21T01:19:07;9.40;;;5.62;;
65665;SDS011;52365;47.464;18.976;2023-11-21T01:19:28;9.48;;;5.62;;
65665;SDS011;52365;47.464;18.976;2023-11-21T01:19:49;10.43;;;5.47;;
65665;SDS011;52365;47.464;18.976;2023-11-21T01:20:10;9.48;;;5.43;;
65665;SDS011;52365;47.464;18.976;2023-11-21T01:20:32;9.40;;;5.22;;
65665;SDS011;52365;47.464;18.976;2023-11-21T01:20:48;10.23;;;5.10;;
65665;SDS011;52365;47.464;18.976;2023-11-21T01:21:09;9.95;;;5.05;;
65665;SDS011;52365;47.464;18.976;2023-11-21T01:21:31;11.07;;;5.18;;
65665;SDS011;52365;47.464;18.976;2023-11-21T01:21:52;10.13;;;4.75;;
65665;SDS011;52365;47.464;18.976;2023-11-21T01:22:13;8.63;;;5.03;;
65665;SDS011;52365;47.464;18.976;2023-11-21T01:22:34;8.52;;;5.20;;
65665;SDS011;52365;47.464;18.976;2023-11-21T01:22:56;8.68;;;4.82;;
65665;SDS011;52365;47.464;18.976;2023-11-21T01:23:17;7.85;;;4.78;;
65665;SDS011;52365;47.464;18.976;2023-11-21T01:23:38;8.27;;;4.95;;
65665;SDS011;52365;47.464;18.976;2023-11-21T01:23:58;9.60;;;5.35;;
65665;SDS011;52365;47.464;18.976;2023-11-21T01:24:19;8.20;;;4.47;;
65665;SDS011;52365;47.464;18.976;2023-11-21T01:24:40;9.10;;;5.30;;
65665;SDS011;52365;47.464;18.976;2023-11-21T01:25:01;8.32;;;4.90;;
65665;SDS011;52365;47.464;18.976;2023-11-21T01:25:25;8.00;;;5.20;;
65665;SDS011;52365;47.464;18.976;2023-11-21T01:25:46;8.25;;;5.12;;
65665;SDS011;52365;47.464;18.976;2023-11-21T01:26:07;8.23;;;4.85;;
65665;SDS011;52365;47.464;18.976;2023-11-21T01:26:29;9.20;;;5.25;;
65665;SDS011;52365;47.464;18.976;2023-11-21T01:26:50;7.72;;;4.62;;
65665;SDS011;52365;47.464;18.976;2023-11-21T01:27:11;7.97;;;4.62;;
65665;SDS011;52365;47.464;18.976;2023-11-21T01:27:35;10.35;;;4.87;;
65665;SDS011;52365;47.464;18.976;2023-11-21T01:27:56;7.50;;;4.53;;
65665;SDS011;52365;47.464;18.976;2023-11-21T01:28:17;8.93;;;4.68;;
65665;SDS011;52365;47.464;18.976;2023-11-21T01:28:38;8.27;;;4.93;;
65665;SDS011;52365;47.464;18.976;2023-11-21T01:28:59;9.55;;;5.00;;
65665;SDS011;52365;47.464;18.976;2023-11-21T01:29:21;9.57;;;5.22;;
65665;SDS011;52365;47.464;18.976;2023-11-21T01:29:42;9.55;;;5.10;;
65665;SDS011;52365;47.464;18.976;2023-11-21T01:30:03;7.70;;;4.50;;
65665;SDS011;52365;47.464;18.976;2023-11-21T01:30:25;8.45;;;4.53;;
65665;SDS011;52365;47.464;18.976;2023-11-21T01:30:46;10.00;;;4.90;;
65665;SDS011;52365;47.464;18.976;2023-11-21T01:31:07;9.02;;;4.57;;
65665;SDS011;52365;47.464;18.976;2023-11-21T01:31:28;8.85;;;4.47;;
65665;SDS011;52365;47.464;18.976;2023-11-21T01:31:50;9.25;;;4.62;;
65665;SDS011;52365;47.464;18.976;2023-11-21T01:32:12;10.50;;;4.80;;
65665;SDS011;52365;47.464;18.976;2023-11-21T01:32:33;8.57;;;4.50;;
65665;SDS011;52365;47.464;18.976;2023-11-21T01:32:54;10.43;;;5.03;;
65665;SDS011;52365;47.464;18.976;2023-11-21T01:33:15;11.02;;;5.10;;
65665;SDS011;52365;47.464;18.976;2023-11-21T01:33:36;9.27;;;4.62;;
65665;SDS011;52365;47.464;18.976;2023-11-21T01:33:57;6.82;;;4.60;;
65665;SDS011;52365;47.464;18.976;2023-11-21T01:34:19;7.57;;;4.65;;
65665;SDS011;52365;47.464;18.976;2023-11-21T01:34:40;8.77;;;4.97;;
65665;SDS011;52365;47.464;18.976;2023-11-21T01:35:01;9.00;;;5.12;;
65665;SDS011;52365;47.464;18.976;2023-11-21T01:35:22;9.48;;;4.70;;
65665;SDS011;52365;47.464;18.976;2023-11-21T01:35:43;10.35;;;5.32;;
65665;SDS011;52365;47.464;18.976;2023-11-21T01:36:04;8.15;;;4.87;;
65665;SDS011;52365;47.464;18.976;2023-11-21T01:36:32;11.10;;;5.28;;
65665;SDS011;52365;47.464;18.976;2023-11-21T01:36:53;11.23;;;5.37;;
65665;SDS011;52365;47.464;18.976;2023-11-21T01:37:14;13.68;;;5.85;;
65665;SDS011;52365;47.464;18.976;2023-11-21T01:37:36;16.40;;;6.30;;
65665;SDS011;52365;47.464;18.976;2023-11-21T01:37:59;13.15;;;5.97;;
65665;SDS011;52365;47.464;18.976;2023-11-21T01:38:21;13.13;;;5.45;;
65665;SDS011;52365;47.464;18.976;2023-11-21T01:38:42;11.15;;;5.25;;
65665;SDS011;52365;47.464;18.976;2023-11-21T01:39:04;9.02;;;4.30;;
65665;SDS011;52365;47.464;18.976;2023-11-21T01:39:28;9.52;;;4.50;;
65665;SDS011;52365;47.464;18.976;2023-11-21T01:39:49;11.00;;;4.90;;
65665;SDS011;52365;47.464;18.976;2023-11-21T01:40:10;11.20;;;5.20;;
65665;SDS011;52365;47.464;18.976;2023-11-21T01:40:34;13.10;;;5.65;;
65665;SDS011;52365;47.464;18.976;2023-11-21T01:40:56;13.82;;;5.90;;
65665;SDS011;52365;47.464;18.976;2023-11-21T01:41:17;12.13;;;5.43;;
65665;SDS011;52365;47.464;18.976;2023-11-21T01:41:38;12.77;;;5.53;;
65665;SDS011;52365;47.464;18.976;2023-11-21T01:41:59;12.63;;;5.57;;
65665;SDS011;52365;47.464;18.976;2023-11-21T01:42:20;12.82;;;5.60;;
65665;SDS011;52365;47.464;18.976;2023-11-21T01:42:42;12.70;;;5.95;;
65665;SDS011;52365;47.464;18.976;2023-11-21T01:43:07;12.82;;;5.85;;
65665;SDS011;52365;47.464;18.976;2023-11-21T01:43:30;13.15;;;5.55;;
65665;SDS011;52365;47.464;18.976;2023-11-21T01:43:52;11.07;;;5.78;;
65665;SDS011;52365;47.464;18.976;2023-11-21T01:44:14;12.37;;;5.78;;
65665;SDS011;52365;47.464;18.976;2023-11-21T01:44:34;13.35;;;5.68;;
65665;SDS011;52365;47.464;18.976;2023-11-21T01:44:56;11.70;;;5.47;;
65665;SDS011;52365;47.464;18.976;2023-11-21T01:45:17;11.23;;;5.30;;
65665;SDS011;52365;47.464;18.976;2023-11-21T01:45:38;12.75;;;5.50;;
65665;SDS011;52365;47.464;18.976;2023-11-21T01:45:59;12.77;;;5.20;;
65665;SDS011;52365;47.464;18.976;2023-11-21T01:46:21;12.57;;;5.30;;
65665;SDS011;52365;47.464;18.976;2023-11-21T01:46:43;13.55;;;5.57;;
65665;SDS011;52365;47.464;18.976;2023-11-21T01:47:05;12.32;;;5.32;;
65665;SDS011;52365;47.464;18.976;2023-11-21T01:47:26;10.95;;;5.35;;
65665;SDS011;52365;47.464;18.976;2023-11-21T01:47:47;12.35;;;5.70;;
65665;SDS011;52365;47.464;18.976;2023-11-21T01:48:08;13.00;;;5.50;;
65665;SDS011;52365;47.464;18.976;2023-11-21T01:48:30;15.02;;;6.30;;
65665;SDS011;52365;47.464;18.976;2023-11-21T01:48:51;14.27;;;6.00;;
65665;SDS011;52365;47.464;18.976;2023-11-21T01:49:13;71.85;;;42.28;;
65665;SDS011;52365;47.464;18.976;2023-11-21T01:49:35;112.30;;;69.30;;
65665;SDS011;52365;47.464;18.976;2023-11-21T01:49:56;87.82;;;55.50;;
65665;SDS011;52365;47.464;18.976;2023-11-21T01:50:18;40.20;;;24.70;;
65665;SDS011;52365;47.464;18.976;2023-11-21T01:50:39;21.42;;;12.80;;
65665;SDS011;52365;47.464;18.976;2023-11-21T01:51:01;16.62;;;9.05;;
65665;SDS011;52365;47.464;18.976;2023-11-21T01:51:23;15.60;;;7.32;;
65665;SDS011;52365;47.464;18.976;2023-11-21T01:51:45;13.35;;;6.72;;
65665;SDS011;52365;47.464;18.976;2023-11-21T01:52:09;13.50;;;6.25;;
65665;SDS011;52365;47.464;18.976;2023-11-21T01:52:31;13.17;;;5.53;;
65665;SDS011;52365;47.464;18.976;2023-11-21T01:52:53;13.13;;;5.43;;
65665;SDS011;52365;47.464;18.976;2023-11-21T01:53:14;11.82;;;4.85;;
65665;SDS011;52365;47.464;18.976;2023-11-21T01:53:35;12.65;;;5.60;;
65665;SDS011;52365;47.464;18.976;2023-11-21T01:53:57;11.68;;;5.35;;
65665;SDS011;52365;47.464;18.976;2023-11-21T01:54:19;11.05;;;4.90;;
65665;SDS011;52365;47.464;18.976;2023-11-21T01:54:41;10.82;;;4.62;;
65665;SDS011;52365;47.464;18.976;2023-11-21T01:55:03;9.18;;;4.80;;
65665;SDS011;52365;47.464;18.976;2023-11-21T01:55:27;9.70;;;4.70;;
65665;SDS011;52365;47.464;18.976;2023-11-21T01:55:48;9.10;;;4.28;;
65665;SDS011;52365;47.464;18.976;2023-11-21T01:56:09;10.25;;;4.37;;
65665;SDS011;52365;47.464;18.976;2023-11-21T01:56:31;10.18;;;4.62;;
65665;SDS011;52365;47.464;18.976;2023-11-21T01:56:52;10.63;;;4.70;;
65665;SDS011;52365;47.464;18.976;2023-11-21T01:57:14;8.57;;;4.30;;
65665;SDS011;52365;47.464;18.976;2023-11-21T01:57:36;8.30;;;4.50;;
65665;SDS011;52365;47.464;18.976;2023-11-21T01:58:00;9.07;;;4.12;;
65665;SDS011;52365;47.464;18.976;2023-11-21T01:58:22;10.50;;;4.32;;
65665;SDS011;52365;47.464;18.976;2023-11-21T01:58:43;9.40;;;4.43;;
65665;SDS011;52365;47.464;18.976;2023-11-21T01:59:05;9.10;;;4.43;;
65665;SDS011;52365;47.464;18.976;2023-11-21T01:59:27;7.40;;;4.20;;
65665;SDS011;52365;47.464;18.976;2023-11-21T01:59:54;9.18;;;4.12;;
65665;SDS011;52365;47.464;18.976;2023-11-21T02:00:15;7.90;;;4.47;;
65665;SDS011;52365;47.464;18.976;2023-11-21T02:00:36;8.05;;;4.68;;
65665;SDS011;52365;47.464;18.976;2023-11-21T02:00:59;10.00;;;4.85;;
65665;SDS011;52365;47.464;18.976;2023-11-21T02:01:20;10.48;;;4.40;;
65665;SDS011;52365;47.464;18.976;2023-11-21T02:01:41;9.98;;;4.60;;
65665;SDS011;52365;47.464;18.976;2023-11-21T02:02:05;9.55;;;4.55;;
65665;SDS011;52365;47.464;18.976;2023-11-21T02:02:26;10.25;;;4.60;;
65665;SDS011;52365;47.464;18.976;2023-11-21T02:02:48;11.00;;;4.55;;
65665;SDS011;52365;47.464;18.976;2023-11-21T02:03:09;9.45;;;4.53;;
65665;SDS011;52365;47.464;18.976;2023-11-21T02:03:31;8.68;;;4.30;;
65665;SDS011;52365;47.464;18.976;2023-11-21T02:03:52;7.45;;;4.43;;
65665;SDS011;52365;47.464;18.976;2023-11-21T02:04:13;8.18;;;4.45;;
65665;SDS011;52365;47.464;18.976;2023-11-21T02:04:35;9.32;;;4.68;;
65665;SDS011;52365;47.464;18.976;2023-11-21T02:04:57;9.50;;;4.40;;
65665;SDS011;52365;47.464;18.976;2023-11-21T02:05:18;8.35;;;4.20;;